sensor_id;sensor_type;location;lat;lon;timestamp;P1;durP1;ratioP1;P2;durP2;ratioP2
23988;SDS011;12202;52.136;5.592;2022-09-30T00:01:13;21.10;;;14.55;;
23988;SDS011;12202;52.136;5.592;2022-09-30T00:03:39;23.70;;;14.80;;
23988;SDS011;12202;52.136;5.592;2022-09-30T00:06:05;24.85;;;15.73;;
23988;SDS011;12202;52.136;5.592;2022-09-30T00:08:31;20.92;;;14.48;;
23988;SDS011;12202;52.136;5.592;2022-09-30T00:11:01;29.83;;;17.85;;
23988;SDS011;12202;52.136;5.592;2022-09-30T00:13:28;28.48;;;16.52;;
23988;SDS011;12202;52.136;5.592;2022-09-30T00:15:55;28.50;;;16.70;;
23988;SDS011;12202;52.136;5.592;2022-09-30T00:18:21;30.20;;;17.98;;
23988;SDS011;12202;52.136;5.592;2022-09-30T00:20:47;28.17;;;17.58;;
23988;SDS011;12202;52.136;5.592;2022-09-30T00:23:13;29.80;;;18.58;;
23988;SDS011;12202;52.136;5.592;2022-09-30T00:25:38;31.73;;;18.75;;
23988;SDS011;12202;52.136;5.592;2022-09-30T00:28:05;28.23;;;17.90;;
23988;SDS011;12202;52.136;5.592;2022-09-30T00:30:32;31.65;;;18.63;;
23988;SDS011;12202;52.136;5.592;2022-09-30T00:32:58;28.05;;;18.98;;
23988;SDS011;12202;52.136;5.592;2022-09-30T00:35:24;28.65;;;17.35;;
23988;SDS011;12202;52.136;5.592;2022-09-30T00:37:50;26.42;;;16.92;;
23988;SDS011;12202;52.136;5.592;2022-09-30T00:40:19;28.42;;;17.70;;
23988;SDS011;12202;52.136;5.592;2022-09-30T00:42:45;26.15;;;17.38;;
23988;SDS011;12202;52.136;5.592;2022-09-30T00:45:12;30.40;;;19.85;;
23988;SDS011;12202;52.136;5.592;2022-09-30T00:47:55;32.80;;;19.25;;
23988;SDS011;12202;52.136;5.592;2022-09-30T00:50:38;35.83;;;18.38;;
23988;SDS011;12202;52.136;5.592;2022-09-30T00:53:21;31.70;;;20.30;;
23988;SDS011;12202;52.136;5.592;2022-09-30T00:56:00;30.85;;;19.75;;
23988;SDS011;12202;52.136;5.592;2022-09-30T00:58:41;28.42;;;17.65;;
23988;SDS011;12202;52.136;5.592;2022-09-30T01:01:08;30.85;;;18.88;;
23988;SDS011;12202;52.136;5.592;2022-09-30T01:03:39;29.85;;;18.40;;
23988;SDS011;12202;52.136;5.592;2022-09-30T01:06:06;31.08;;;19.88;;
23988;SDS011;12202;52.136;5.592;2022-09-30T01:08:32;32.28;;;20.08;;
23988;SDS011;12202;52.136;5.592;2022-09-30T01:11:00;34.00;;;18.90;;
23988;SDS011;12202;52.136;5.592;2022-09-30T01:13:26;29.95;;;19.02;;
23988;SDS011;12202;52.136;5.592;2022-09-30T01:18:48;28.77;;;19.77;;
23988;SDS011;12202;52.136;5.592;2022-09-30T01:42:05;31.80;;;19.38;;
23988;SDS011;12202;52.136;5.592;2022-09-30T01:49:42;30.85;;;19.95;;
23988;SDS011;12202;52.136;5.592;2022-09-30T01:52:15;31.25;;;18.63;;
23988;SDS011;12202;52.136;5.592;2022-09-30T01:54:49;25.90;;;17.63;;
23988;SDS011;12202;52.136;5.592;2022-09-30T01:59:46;32.50;;;18.33;;
23988;SDS011;12202;52.136;5.592;2022-09-30T02:02:16;31.48;;;19.83;;
23988;SDS011;12202;52.136;5.592;2022-09-30T02:04:51;33.97;;;19.65;;
23988;SDS011;12202;52.136;5.592;2022-09-30T02:07:21;27.52;;;19.08;;
23988;SDS011;12202;52.136;5.592;2022-09-30T02:09:51;28.40;;;18.20;;
23988;SDS011;12202;52.136;5.592;2022-09-30T02:12:20;29.52;;;17.83;;
23988;SDS011;12202;52.136;5.592;2022-09-30T02:14:54;33.30;;;17.25;;
23988;SDS011;12202;52.136;5.592;2022-09-30T02:17:24;29.65;;;18.98;;
23988;SDS011;12202;52.136;5.592;2022-09-30T02:20:09;30.27;;;18.13;;
23988;SDS011;12202;52.136;5.592;2022-09-30T02:22:44;25.42;;;16.27;;
23988;SDS011;12202;52.136;5.592;2022-09-30T02:28:07;30.05;;;17.15;;
23988;SDS011;12202;52.136;5.592;2022-09-30T02:30:37;23.33;;;16.25;;
23988;SDS011;12202;52.136;5.592;2022-09-30T02:33:18;25.33;;;16.45;;
23988;SDS011;12202;52.136;5.592;2022-09-30T02:38:42;22.83;;;15.68;;
23988;SDS011;12202;52.136;5.592;2022-09-30T02:41:14;31.10;;;16.38;;
23988;SDS011;12202;52.136;5.592;2022-09-30T02:43:41;30.88;;;17.48;;
23988;SDS011;12202;52.136;5.592;2022-09-30T02:46:09;32.05;;;17.95;;
23988;SDS011;12202;52.136;5.592;2022-09-30T02:48:41;27.92;;;17.48;;
23988;SDS011;12202;52.136;5.592;2022-09-30T02:56:22;26.80;;;16.90;;
23988;SDS011;12202;52.136;5.592;2022-09-30T02:58:50;25.10;;;15.80;;
23988;SDS011;12202;52.136;5.592;2022-09-30T03:01:17;25.85;;;15.60;;
23988;SDS011;12202;52.136;5.592;2022-09-30T03:03:50;24.77;;;15.60;;
23988;SDS011;12202;52.136;5.592;2022-09-30T03:06:17;34.33;;;17.33;;
23988;SDS011;12202;52.136;5.592;2022-09-30T03:08:44;25.30;;;15.93;;
23988;SDS011;12202;52.136;5.592;2022-09-30T03:11:17;23.77;;;15.38;;
23988;SDS011;12202;52.136;5.592;2022-09-30T03:16:46;25.83;;;15.43;;
23988;SDS011;12202;52.136;5.592;2022-09-30T03:22:09;25.08;;;14.07;;
23988;SDS011;12202;52.136;5.592;2022-09-30T03:30:01;20.60;;;13.00;;
23988;SDS011;12202;52.136;5.592;2022-09-30T03:32:36;20.65;;;13.32;;
23988;SDS011;12202;52.136;5.592;2022-09-30T03:37:55;19.55;;;12.40;;
23988;SDS011;12202;52.136;5.592;2022-09-30T03:43:04;20.00;;;12.13;;
23988;SDS011;12202;52.136;5.592;2022-09-30T03:47:58;24.90;;;14.60;;
23988;SDS011;12202;52.136;5.592;2022-09-30T03:50:26;23.65;;;12.23;;
23988;SDS011;12202;52.136;5.592;2022-09-30T03:52:53;21.40;;;12.23;;
23988;SDS011;12202;52.136;5.592;2022-09-30T03:55:19;19.92;;;11.98;;
23988;SDS011;12202;52.136;5.592;2022-09-30T03:57:46;21.20;;;12.10;;
23988;SDS011;12202;52.136;5.592;2022-09-30T04:00:13;18.52;;;11.38;;
23988;SDS011;12202;52.136;5.592;2022-09-30T04:02:39;22.55;;;12.77;;
23988;SDS011;12202;52.136;5.592;2022-09-30T04:05:06;19.92;;;12.40;;
23988;SDS011;12202;52.136;5.592;2022-09-30T04:07:32;21.65;;;13.30;;
23988;SDS011;12202;52.136;5.592;2022-09-30T04:09:59;17.90;;;11.40;;
23988;SDS011;12202;52.136;5.592;2022-09-30T04:12:25;16.00;;;12.30;;
23988;SDS011;12202;52.136;5.592;2022-09-30T04:14:51;20.42;;;12.63;;
23988;SDS011;12202;52.136;5.592;2022-09-30T04:17:17;17.25;;;11.95;;
23988;SDS011;12202;52.136;5.592;2022-09-30T04:19:43;20.60;;;11.93;;
23988;SDS011;12202;52.136;5.592;2022-09-30T04:22:09;25.13;;;13.02;;
23988;SDS011;12202;52.136;5.592;2022-09-30T04:24:35;19.38;;;11.73;;
23988;SDS011;12202;52.136;5.592;2022-09-30T04:27:03;24.27;;;11.85;;
23988;SDS011;12202;52.136;5.592;2022-09-30T04:29:29;16.73;;;11.43;;
23988;SDS011;12202;52.136;5.592;2022-09-30T04:31:55;17.83;;;11.82;;
23988;SDS011;12202;52.136;5.592;2022-09-30T04:34:21;24.92;;;14.57;;
23988;SDS011;12202;52.136;5.592;2022-09-30T04:36:47;24.15;;;14.27;;
23988;SDS011;12202;52.136;5.592;2022-09-30T04:39:13;19.55;;;13.00;;
23988;SDS011;12202;52.136;5.592;2022-09-30T04:41:39;25.27;;;14.23;;
23988;SDS011;12202;52.136;5.592;2022-09-30T04:44:05;30.45;;;15.05;;
23988;SDS011;12202;52.136;5.592;2022-09-30T04:46:32;20.50;;;14.40;;
23988;SDS011;12202;52.136;5.592;2022-09-30T04:48:58;23.63;;;15.00;;
23988;SDS011;12202;52.136;5.592;2022-09-30T04:51:25;22.20;;;14.02;;
23988;SDS011;12202;52.136;5.592;2022-09-30T04:53:51;20.63;;;12.68;;
23988;SDS011;12202;52.136;5.592;2022-09-30T04:56:17;25.08;;;14.43;;
23988;SDS011;12202;52.136;5.592;2022-09-30T04:58:43;19.83;;;13.20;;
23988;SDS011;12202;52.136;5.592;2022-09-30T05:01:10;25.70;;;15.98;;
23988;SDS011;12202;52.136;5.592;2022-09-30T05:03:37;27.77;;;16.38;;
23988;SDS011;12202;52.136;5.592;2022-09-30T05:06:03;25.17;;;15.05;;
23988;SDS011;12202;52.136;5.592;2022-09-30T05:08:30;30.13;;;16.05;;
23988;SDS011;12202;52.136;5.592;2022-09-30T05:10:59;22.48;;;15.90;;
23988;SDS011;12202;52.136;5.592;2022-09-30T05:13:30;27.10;;;15.02;;
23988;SDS011;12202;52.136;5.592;2022-09-30T05:15:56;24.65;;;14.40;;
23988;SDS011;12202;52.136;5.592;2022-09-30T05:18:22;31.63;;;15.55;;
23988;SDS011;12202;52.136;5.592;2022-09-30T05:20:52;32.72;;;18.10;;
23988;SDS011;12202;52.136;5.592;2022-09-30T05:23:18;32.05;;;18.10;;
23988;SDS011;12202;52.136;5.592;2022-09-30T05:25:45;28.52;;;16.77;;
23988;SDS011;12202;52.136;5.592;2022-09-30T05:28:11;24.48;;;14.13;;
23988;SDS011;12202;52.136;5.592;2022-09-30T05:30:37;21.50;;;13.38;;
23988;SDS011;12202;52.136;5.592;2022-09-30T05:33:03;24.20;;;13.48;;
23988;SDS011;12202;52.136;5.592;2022-09-30T05:35:31;20.42;;;13.48;;
23988;SDS011;12202;52.136;5.592;2022-09-30T05:37:57;21.13;;;13.18;;
23988;SDS011;12202;52.136;5.592;2022-09-30T05:40:22;21.85;;;14.02;;
23988;SDS011;12202;52.136;5.592;2022-09-30T05:42:48;22.92;;;13.18;;
23988;SDS011;12202;52.136;5.592;2022-09-30T05:45:14;23.00;;;13.70;;
23988;SDS011;12202;52.136;5.592;2022-09-30T05:47:40;22.30;;;13.73;;
23988;SDS011;12202;52.136;5.592;2022-09-30T05:50:06;21.48;;;12.60;;
23988;SDS011;12202;52.136;5.592;2022-09-30T05:52:33;24.05;;;13.43;;
23988;SDS011;12202;52.136;5.592;2022-09-30T05:54:59;33.38;;;16.65;;
23988;SDS011;12202;52.136;5.592;2022-09-30T05:57:28;36.22;;;17.73;;
23988;SDS011;12202;52.136;5.592;2022-09-30T05:59:54;34.17;;;18.05;;
23988;SDS011;12202;52.136;5.592;2022-09-30T06:02:22;30.85;;;17.70;;
23988;SDS011;12202;52.136;5.592;2022-09-30T06:04:48;24.55;;;16.58;;
23988;SDS011;12202;52.136;5.592;2022-09-30T06:07:14;28.02;;;18.40;;
23988;SDS011;12202;52.136;5.592;2022-09-30T06:09:40;29.33;;;16.20;;
23988;SDS011;12202;52.136;5.592;2022-09-30T06:12:06;25.63;;;16.67;;
23988;SDS011;12202;52.136;5.592;2022-09-30T06:14:33;25.55;;;17.02;;
23988;SDS011;12202;52.136;5.592;2022-09-30T06:16:59;29.25;;;18.75;;
23988;SDS011;12202;52.136;5.592;2022-09-30T06:19:25;29.80;;;19.05;;
23988;SDS011;12202;52.136;5.592;2022-09-30T06:21:55;33.40;;;19.95;;
23988;SDS011;12202;52.136;5.592;2022-09-30T06:24:21;33.03;;;19.30;;
23988;SDS011;12202;52.136;5.592;2022-09-30T06:26:47;34.72;;;20.20;;
23988;SDS011;12202;52.136;5.592;2022-09-30T06:29:13;47.65;;;23.23;;
23988;SDS011;12202;52.136;5.592;2022-09-30T06:31:39;34.60;;;21.67;;
23988;SDS011;12202;52.136;5.592;2022-09-30T06:34:05;46.20;;;23.67;;
23988;SDS011;12202;52.136;5.592;2022-09-30T06:36:32;42.60;;;24.17;;
23988;SDS011;12202;52.136;5.592;2022-09-30T06:39:01;39.78;;;23.40;;
23988;SDS011;12202;52.136;5.592;2022-09-30T06:41:28;48.70;;;26.67;;
23988;SDS011;12202;52.136;5.592;2022-09-30T06:43:54;46.03;;;25.10;;
23988;SDS011;12202;52.136;5.592;2022-09-30T06:46:21;46.28;;;26.02;;
23988;SDS011;12202;52.136;5.592;2022-09-30T06:48:47;36.05;;;22.73;;
23988;SDS011;12202;52.136;5.592;2022-09-30T06:51:16;42.88;;;25.40;;
23988;SDS011;12202;52.136;5.592;2022-09-30T06:53:42;48.05;;;27.30;;
23988;SDS011;12202;52.136;5.592;2022-09-30T06:56:08;51.47;;;27.23;;
23988;SDS011;12202;52.136;5.592;2022-09-30T06:58:34;48.35;;;25.92;;
23988;SDS011;12202;52.136;5.592;2022-09-30T07:01:02;42.75;;;26.17;;
23988;SDS011;12202;52.136;5.592;2022-09-30T07:03:33;46.72;;;28.23;;
23988;SDS011;12202;52.136;5.592;2022-09-30T07:06:00;56.33;;;33.05;;
23988;SDS011;12202;52.136;5.592;2022-09-30T07:08:27;54.85;;;35.13;;
23988;SDS011;12202;52.136;5.592;2022-09-30T07:10:55;72.18;;;41.78;;
23988;SDS011;12202;52.136;5.592;2022-09-30T07:13:21;70.65;;;41.05;;
23988;SDS011;12202;52.136;5.592;2022-09-30T07:15:47;73.40;;;41.80;;
23988;SDS011;12202;52.136;5.592;2022-09-30T07:18:18;87.30;;;46.47;;
23988;SDS011;12202;52.136;5.592;2022-09-30T07:20:51;76.75;;;43.70;;
23988;SDS011;12202;52.136;5.592;2022-09-30T07:23:18;80.18;;;45.63;;
23988;SDS011;12202;52.136;5.592;2022-09-30T07:25:48;84.30;;;47.63;;
23988;SDS011;12202;52.136;5.592;2022-09-30T07:28:14;96.15;;;49.72;;
23988;SDS011;12202;52.136;5.592;2022-09-30T07:30:41;93.25;;;49.92;;
23988;SDS011;12202;52.136;5.592;2022-09-30T07:33:07;93.38;;;52.22;;
23988;SDS011;12202;52.136;5.592;2022-09-30T07:35:34;96.85;;;52.65;;
23988;SDS011;12202;52.136;5.592;2022-09-30T07:38:01;91.82;;;51.88;;
23988;SDS011;12202;52.136;5.592;2022-09-30T07:40:27;92.80;;;52.08;;
23988;SDS011;12202;52.136;5.592;2022-09-30T07:42:55;98.50;;;53.83;;
23988;SDS011;12202;52.136;5.592;2022-09-30T07:45:22;86.57;;;50.60;;
23988;SDS011;12202;52.136;5.592;2022-09-30T07:47:48;82.05;;;49.67;;
23988;SDS011;12202;52.136;5.592;2022-09-30T07:50:14;85.60;;;49.50;;
23988;SDS011;12202;52.136;5.592;2022-09-30T07:52:41;78.30;;;48.13;;
23988;SDS011;12202;52.136;5.592;2022-09-30T07:55:07;74.72;;;46.10;;
23988;SDS011;12202;52.136;5.592;2022-09-30T07:57:33;70.20;;;44.83;;
23988;SDS011;12202;52.136;5.592;2022-09-30T07:59:59;65.78;;;43.65;;
23988;SDS011;12202;52.136;5.592;2022-09-30T08:02:25;66.53;;;43.65;;
23988;SDS011;12202;52.136;5.592;2022-09-30T08:04:51;66.20;;;42.15;;
23988;SDS011;12202;52.136;5.592;2022-09-30T08:07:17;64.97;;;40.92;;
23988;SDS011;12202;52.136;5.592;2022-09-30T08:09:43;59.33;;;40.75;;
23988;SDS011;12202;52.136;5.592;2022-09-30T08:12:09;57.97;;;39.58;;
23988;SDS011;12202;52.136;5.592;2022-09-30T08:14:35;61.35;;;38.65;;
23988;SDS011;12202;52.136;5.592;2022-09-30T08:17:01;57.50;;;36.80;;
23988;SDS011;12202;52.136;5.592;2022-09-30T08:19:28;55.75;;;37.10;;
23988;SDS011;12202;52.136;5.592;2022-09-30T08:21:54;51.33;;;35.92;;
23988;SDS011;12202;52.136;5.592;2022-09-30T08:24:21;51.92;;;35.88;;
23988;SDS011;12202;52.136;5.592;2022-09-30T08:26:47;54.95;;;35.42;;
23988;SDS011;12202;52.136;5.592;2022-09-30T08:29:13;55.33;;;35.38;;
23988;SDS011;12202;52.136;5.592;2022-09-30T08:31:39;52.05;;;36.38;;
23988;SDS011;12202;52.136;5.592;2022-09-30T08:34:05;51.90;;;34.42;;
23988;SDS011;12202;52.136;5.592;2022-09-30T08:36:32;47.78;;;34.15;;
23988;SDS011;12202;52.136;5.592;2022-09-30T08:38:58;59.22;;;35.67;;
23988;SDS011;12202;52.136;5.592;2022-09-30T08:49:28;46.47;;;32.33;;
23988;SDS011;12202;52.136;5.592;2022-09-30T08:51:56;47.22;;;32.17;;
23988;SDS011;12202;52.136;5.592;2022-09-30T08:54:25;45.75;;;31.48;;
23988;SDS011;12202;52.136;5.592;2022-09-30T08:56:54;42.65;;;32.00;;
23988;SDS011;12202;52.136;5.592;2022-09-30T08:59:37;51.55;;;31.90;;
23988;SDS011;12202;52.136;5.592;2022-09-30T09:02:11;55.88;;;32.85;;
23988;SDS011;12202;52.136;5.592;2022-09-30T09:04:39;54.65;;;31.15;;
23988;SDS011;12202;52.136;5.592;2022-09-30T09:09:52;42.42;;;28.33;;
23988;SDS011;12202;52.136;5.592;2022-09-30T09:20:10;40.22;;;27.98;;
23988;SDS011;12202;52.136;5.592;2022-09-30T09:22:38;40.97;;;26.98;;
23988;SDS011;12202;52.136;5.592;2022-09-30T09:25:05;31.70;;;24.52;;
23988;SDS011;12202;52.136;5.592;2022-09-30T09:30:13;32.50;;;26.38;;
23988;SDS011;12202;52.136;5.592;2022-09-30T09:32:41;32.50;;;25.73;;
23988;SDS011;12202;52.136;5.592;2022-09-30T09:35:14;31.50;;;21.95;;
23988;SDS011;12202;52.136;5.592;2022-09-30T09:37:43;31.35;;;23.42;;
23988;SDS011;12202;52.136;5.592;2022-09-30T09:40:38;27.17;;;20.33;;
23988;SDS011;12202;52.136;5.592;2022-09-30T09:48:06;27.02;;;19.33;;
23988;SDS011;12202;52.136;5.592;2022-09-30T09:53:12;25.85;;;18.33;;
23988;SDS011;12202;52.136;5.592;2022-09-30T09:55:42;23.88;;;17.55;;
23988;SDS011;12202;52.136;5.592;2022-09-30T09:58:09;27.60;;;18.73;;
23988;SDS011;12202;52.136;5.592;2022-09-30T10:00:37;28.33;;;18.70;;
23988;SDS011;12202;52.136;5.592;2022-09-30T10:05:37;24.00;;;18.05;;
23988;SDS011;12202;52.136;5.592;2022-09-30T10:08:16;25.38;;;18.63;;
23988;SDS011;12202;52.136;5.592;2022-09-30T10:10:43;25.60;;;18.08;;
23988;SDS011;12202;52.136;5.592;2022-09-30T10:13:21;21.90;;;16.48;;
23988;SDS011;12202;52.136;5.592;2022-09-30T10:15:48;25.80;;;17.58;;
23988;SDS011;12202;52.136;5.592;2022-09-30T10:18:16;22.02;;;17.55;;
23988;SDS011;12202;52.136;5.592;2022-09-30T10:20:48;22.20;;;16.75;;
23988;SDS011;12202;52.136;5.592;2022-09-30T10:23:34;20.23;;;16.08;;
23988;SDS011;12202;52.136;5.592;2022-09-30T10:28:57;21.60;;;16.92;;
23988;SDS011;12202;52.136;5.592;2022-09-30T10:31:28;22.80;;;16.58;;
23988;SDS011;12202;52.136;5.592;2022-09-30T10:36:20;21.08;;;15.50;;
23988;SDS011;12202;52.136;5.592;2022-09-30T10:38:51;20.65;;;15.15;;
23988;SDS011;12202;52.136;5.592;2022-09-30T10:41:24;21.83;;;14.48;;
23988;SDS011;12202;52.136;5.592;2022-09-30T10:43:51;19.50;;;14.40;;
23988;SDS011;12202;52.136;5.592;2022-09-30T10:46:21;21.30;;;15.20;;
23988;SDS011;12202;52.136;5.592;2022-09-30T10:48:48;18.50;;;14.00;;
23988;SDS011;12202;52.136;5.592;2022-09-30T10:54:10;22.52;;;15.23;;
23988;SDS011;12202;52.136;5.592;2022-09-30T10:56:53;20.45;;;15.15;;
23988;SDS011;12202;52.136;5.592;2022-09-30T10:59:37;22.10;;;15.02;;
23988;SDS011;12202;52.136;5.592;2022-09-30T11:04:38;14.07;;;11.13;;
23988;SDS011;12202;52.136;5.592;2022-09-30T11:07:12;13.30;;;10.95;;
23988;SDS011;12202;52.136;5.592;2022-09-30T11:09:43;13.23;;;10.30;;
23988;SDS011;12202;52.136;5.592;2022-09-30T11:14:56;16.63;;;10.80;;
23988;SDS011;12202;52.136;5.592;2022-09-30T11:17:28;14.27;;;10.90;;
23988;SDS011;12202;52.136;5.592;2022-09-30T11:20:00;13.50;;;11.63;;
23988;SDS011;12202;52.136;5.592;2022-09-30T11:22:45;14.45;;;11.02;;
23988;SDS011;12202;52.136;5.592;2022-09-30T11:25:15;19.00;;;11.77;;
23988;SDS011;12202;52.136;5.592;2022-09-30T11:27:51;17.50;;;12.90;;
23988;SDS011;12202;52.136;5.592;2022-09-30T11:30:29;13.18;;;10.38;;
23988;SDS011;12202;52.136;5.592;2022-09-30T11:35:34;16.67;;;9.52;;
23988;SDS011;12202;52.136;5.592;2022-09-30T11:40:56;15.88;;;10.70;;
23988;SDS011;12202;52.136;5.592;2022-09-30T11:48:26;17.33;;;9.05;;
23988;SDS011;12202;52.136;5.592;2022-09-30T11:51:02;10.75;;;9.60;;
23988;SDS011;12202;52.136;5.592;2022-09-30T11:56:28;13.55;;;10.75;;
23988;SDS011;12202;52.136;5.592;2022-09-30T11:58:57;11.65;;;9.73;;
23988;SDS011;12202;52.136;5.592;2022-09-30T12:01:31;14.48;;;9.93;;
23988;SDS011;12202;52.136;5.592;2022-09-30T12:04:14;10.98;;;9.48;;
23988;SDS011;12202;52.136;5.592;2022-09-30T12:07:04;13.40;;;8.02;;
23988;SDS011;12202;52.136;5.592;2022-09-30T12:09:30;14.25;;;8.15;;
23988;SDS011;12202;52.136;5.592;2022-09-30T12:12:01;17.35;;;10.13;;
23988;SDS011;12202;52.136;5.592;2022-09-30T12:14:29;11.25;;;9.40;;
23988;SDS011;12202;52.136;5.592;2022-09-30T12:16:58;10.93;;;8.70;;
23988;SDS011;12202;52.136;5.592;2022-09-30T12:19:27;9.35;;;8.00;;
23988;SDS011;12202;52.136;5.592;2022-09-30T12:24:28;13.07;;;6.32;;
23988;SDS011;12202;52.136;5.592;2022-09-30T12:26:55;8.60;;;6.72;;
23988;SDS011;12202;52.136;5.592;2022-09-30T12:29:26;9.05;;;6.65;;
23988;SDS011;12202;52.136;5.592;2022-09-30T12:32:16;9.88;;;5.50;;
23988;SDS011;12202;52.136;5.592;2022-09-30T12:45:12;4.55;;;2.63;;
23988;SDS011;12202;52.136;5.592;2022-09-30T12:47:54;4.20;;;2.95;;
23988;SDS011;12202;52.136;5.592;2022-09-30T12:50:31;8.57;;;2.90;;
23988;SDS011;12202;52.136;5.592;2022-09-30T12:53:01;3.90;;;3.28;;
23988;SDS011;12202;52.136;5.592;2022-09-30T12:55:38;3.78;;;2.78;;
23988;SDS011;12202;52.136;5.592;2022-09-30T12:58:05;2.90;;;2.60;;
23988;SDS011;12202;52.136;5.592;2022-09-30T13:00:32;4.95;;;2.95;;
23988;SDS011;12202;52.136;5.592;2022-09-30T13:03:05;4.18;;;2.92;;
23988;SDS011;12202;52.136;5.592;2022-09-30T13:10:31;6.30;;;3.63;;
23988;SDS011;12202;52.136;5.592;2022-09-30T13:13:59;3.58;;;3.22;;
23988;SDS011;12202;52.136;5.592;2022-09-30T13:15:53;8.77;;;3.92;;
23988;SDS011;12202;52.136;5.592;2022-09-30T13:23:40;7.70;;;4.38;;
23988;SDS011;12202;52.136;5.592;2022-09-30T13:28:52;8.90;;;5.75;;
23988;SDS011;12202;52.136;5.592;2022-09-30T13:31:22;8.55;;;5.35;;
23988;SDS011;12202;52.136;5.592;2022-09-30T13:37:25;8.57;;;5.82;;
23988;SDS011;12202;52.136;5.592;2022-09-30T13:39:17;11.07;;;6.05;;
23988;SDS011;12202;52.136;5.592;2022-09-30T13:41:45;7.80;;;5.88;;
23988;SDS011;12202;52.136;5.592;2022-09-30T13:44:27;10.60;;;6.40;;
23988;SDS011;12202;52.136;5.592;2022-09-30T13:46:58;9.75;;;7.00;;
23988;SDS011;12202;52.136;5.592;2022-09-30T13:49:37;8.52;;;7.63;;
23988;SDS011;12202;52.136;5.592;2022-09-30T13:52:06;8.80;;;7.93;;
23988;SDS011;12202;52.136;5.592;2022-09-30T13:54:34;9.75;;;7.82;;
23988;SDS011;12202;52.136;5.592;2022-09-30T13:57:01;10.02;;;7.15;;
23988;SDS011;12202;52.136;5.592;2022-09-30T14:05:04;16.95;;;9.65;;
23988;SDS011;12202;52.136;5.592;2022-09-30T14:12:42;18.77;;;10.40;;
23988;SDS011;12202;52.136;5.592;2022-09-30T14:20:51;10.68;;;9.57;;
23988;SDS011;12202;52.136;5.592;2022-09-30T14:23:20;10.95;;;9.07;;
23988;SDS011;12202;52.136;5.592;2022-09-30T14:25:50;15.70;;;9.70;;
23988;SDS011;12202;52.136;5.592;2022-09-30T14:28:30;13.68;;;9.52;;
23988;SDS011;12202;52.136;5.592;2022-09-30T14:31:01;10.82;;;9.25;;
23988;SDS011;12202;52.136;5.592;2022-09-30T14:33:33;11.45;;;8.70;;
23988;SDS011;12202;52.136;5.592;2022-09-30T14:36:00;14.40;;;8.65;;
23988;SDS011;12202;52.136;5.592;2022-09-30T14:38:27;10.32;;;8.48;;
23988;SDS011;12202;52.136;5.592;2022-09-30T14:40:55;8.77;;;7.32;;
23988;SDS011;12202;52.136;5.592;2022-09-30T14:43:23;10.25;;;6.60;;
23988;SDS011;12202;52.136;5.592;2022-09-30T14:45:56;9.50;;;6.47;;
23988;SDS011;12202;52.136;5.592;2022-09-30T14:48:26;18.83;;;6.82;;
23988;SDS011;12202;52.136;5.592;2022-09-30T14:53:27;10.80;;;7.60;;
23988;SDS011;12202;52.136;5.592;2022-09-30T14:55:53;15.82;;;8.02;;
23988;SDS011;12202;52.136;5.592;2022-09-30T14:58:21;8.80;;;6.90;;
23988;SDS011;12202;52.136;5.592;2022-09-30T15:01:00;7.93;;;6.88;;
23988;SDS011;12202;52.136;5.592;2022-09-30T15:03:27;11.57;;;7.90;;
23988;SDS011;12202;52.136;5.592;2022-09-30T15:05:54;10.13;;;7.50;;
23988;SDS011;12202;52.136;5.592;2022-09-30T15:08:22;10.45;;;7.30;;
23988;SDS011;12202;52.136;5.592;2022-09-30T15:10:48;14.30;;;7.57;;
23988;SDS011;12202;52.136;5.592;2022-09-30T15:13:16;12.20;;;7.90;;
23988;SDS011;12202;52.136;5.592;2022-09-30T15:15:42;8.50;;;7.45;;
23988;SDS011;12202;52.136;5.592;2022-09-30T15:18:24;9.82;;;7.25;;
23988;SDS011;12202;52.136;5.592;2022-09-30T15:20:51;8.90;;;7.10;;
23988;SDS011;12202;52.136;5.592;2022-09-30T15:23:19;10.63;;;7.60;;
23988;SDS011;12202;52.136;5.592;2022-09-30T15:25:46;9.82;;;7.63;;
23988;SDS011;12202;52.136;5.592;2022-09-30T15:28:12;10.65;;;7.20;;
23988;SDS011;12202;52.136;5.592;2022-09-30T15:30:38;15.88;;;6.80;;
23988;SDS011;12202;52.136;5.592;2022-09-30T15:33:11;13.65;;;8.07;;
23988;SDS011;12202;52.136;5.592;2022-09-30T15:35:38;10.65;;;7.18;;
23988;SDS011;12202;52.136;5.592;2022-09-30T15:38:09;11.23;;;7.80;;
23988;SDS011;12202;52.136;5.592;2022-09-30T15:40:42;9.90;;;7.68;;
23988;SDS011;12202;52.136;5.592;2022-09-30T15:43:28;10.00;;;7.75;;
23988;SDS011;12202;52.136;5.592;2022-09-30T15:45:56;11.27;;;6.97;;
23988;SDS011;12202;52.136;5.592;2022-09-30T15:50:52;10.10;;;7.03;;
23988;SDS011;12202;52.136;5.592;2022-09-30T15:55:47;13.40;;;8.00;;
23988;SDS011;12202;52.136;5.592;2022-09-30T15:58:33;10.30;;;7.00;;
23988;SDS011;12202;52.136;5.592;2022-09-30T16:03:33;9.55;;;7.53;;
23988;SDS011;12202;52.136;5.592;2022-09-30T16:08:37;10.23;;;7.47;;
23988;SDS011;12202;52.136;5.592;2022-09-30T16:11:04;12.15;;;7.82;;
23988;SDS011;12202;52.136;5.592;2022-09-30T16:13:40;12.63;;;8.48;;
23988;SDS011;12202;52.136;5.592;2022-09-30T16:16:11;11.73;;;8.05;;
23988;SDS011;12202;52.136;5.592;2022-09-30T16:18:40;13.50;;;7.75;;
23988;SDS011;12202;52.136;5.592;2022-09-30T16:21:22;11.20;;;8.07;;
23988;SDS011;12202;52.136;5.592;2022-09-30T16:23:51;12.20;;;8.10;;
23988;SDS011;12202;52.136;5.592;2022-09-30T16:26:19;8.82;;;7.55;;
23988;SDS011;12202;52.136;5.592;2022-09-30T16:28:48;13.25;;;8.77;;
23988;SDS011;12202;52.136;5.592;2022-09-30T16:31:14;12.30;;;7.30;;
23988;SDS011;12202;52.136;5.592;2022-09-30T16:33:41;9.30;;;7.78;;
23988;SDS011;12202;52.136;5.592;2022-09-30T16:36:07;11.98;;;7.57;;
23988;SDS011;12202;52.136;5.592;2022-09-30T16:38:34;9.95;;;7.55;;
23988;SDS011;12202;52.136;5.592;2022-09-30T16:41:00;10.90;;;8.10;;
23988;SDS011;12202;52.136;5.592;2022-09-30T16:43:27;9.23;;;7.65;;
23988;SDS011;12202;52.136;5.592;2022-09-30T16:45:54;10.63;;;7.35;;
23988;SDS011;12202;52.136;5.592;2022-09-30T16:48:21;8.02;;;7.18;;
23988;SDS011;12202;52.136;5.592;2022-09-30T16:51:03;11.50;;;7.70;;
23988;SDS011;12202;52.136;5.592;2022-09-30T16:53:31;11.30;;;8.23;;
23988;SDS011;12202;52.136;5.592;2022-09-30T16:55:57;12.68;;;9.00;;
23988;SDS011;12202;52.136;5.592;2022-09-30T16:58:23;20.23;;;11.15;;
23988;SDS011;12202;52.136;5.592;2022-09-30T17:00:49;22.08;;;10.05;;
23988;SDS011;12202;52.136;5.592;2022-09-30T17:03:15;13.32;;;10.52;;
23988;SDS011;12202;52.136;5.592;2022-09-30T17:05:42;13.98;;;8.23;;
23988;SDS011;12202;52.136;5.592;2022-09-30T17:08:12;9.75;;;8.60;;
23988;SDS011;12202;52.136;5.592;2022-09-30T17:10:39;12.85;;;8.32;;
23988;SDS011;12202;52.136;5.592;2022-09-30T17:13:06;12.43;;;9.65;;
23988;SDS011;12202;52.136;5.592;2022-09-30T17:15:32;14.15;;;7.75;;
23988;SDS011;12202;52.136;5.592;2022-09-30T17:18:03;11.15;;;8.70;;
23988;SDS011;12202;52.136;5.592;2022-09-30T17:20:31;14.38;;;9.07;;
23988;SDS011;12202;52.136;5.592;2022-09-30T17:22:57;12.80;;;9.23;;
23988;SDS011;12202;52.136;5.592;2022-09-30T17:25:23;18.60;;;9.48;;
23988;SDS011;12202;52.136;5.592;2022-09-30T17:27:49;10.63;;;9.25;;
23988;SDS011;12202;52.136;5.592;2022-09-30T17:30:16;14.70;;;8.60;;
23988;SDS011;12202;52.136;5.592;2022-09-30T17:32:42;14.05;;;8.85;;
23988;SDS011;12202;52.136;5.592;2022-09-30T17:35:08;15.30;;;10.25;;